KSUA/SUA METAR and TAF weather

Enter ICAO airport designator
Station Type Date Time Source
KSUA METAR 2024/02/26 16:47 UTC NOAA

KSUA 261647Z 10008KT 10SM FEW050 23/09 A3024


Station Type Date Time Source
KSUA Decoded METAR 2024/02/26 16:47 UTC NOAA

Stuart, Witham Field Airport, FL, United States (KSUA) 27-10-54N 080-13-16W
Feb 26, 2024 - 11:47 AM EST / 2024.02.26 1647 UTC
Wind: from the E (100 degrees) at 9 MPH (8 KT):0
Visibility: 10 mile(s):0
Sky conditions: mostly clear
Temperature: 73 F (23 C)
Dew Point: 48 F (9 C)
Relative Humidity: 40%
Pressure (altimeter): 30.24 in. Hg (1024 hPa)
ob: KSUA 261647Z 10008KT 10SM FEW050 23/09 A3024
cycle: 17

Station Type Date Time Source
KSUA TAF 2024/02/26 12:24 UTC NOAA